»·PEaware :: GTI22M KSFO-KRNO

GTI22M :: KSFO-KRNO

FLIGHT INFORMATION

Flight Status: Arrived
Operator:
Atlas Air
More flights by this operator :: More flights under this callsign
Pilot: Anonymous 19757 (19757)
Aircraft: BOEING 767-300
(B763)
More flights by this aircraft type
Origin: KSFO San Francisco Intl
United States
Destination: KRNO Reno/Tahoe Intl
United States
More flights between these airports :: More routes between these airports
Route: +TRUKN2 ORRCA HOBOA WALAR
File this flight plan on PilotEdge
Remarks:
Altitude:
(Current/Filed)
25,000ft
Speed:
(Current/Filed)
440kts
Departed: 18-Mar-20 02:03 PM
Arrived: 18-Mar-20 02:45 PM
Distance/Time
Traveled:
166nm/0:42
Distance/Time
To Go:
Arrived

Flight Plot

Page will automatically refresh every two minutes.


Map Options




Map Legend


Flown Route
Filed Route
Departure Airport
Arrival Airport
Navaid (VOR, NDB)
Fix

Horizontal Profiles

Position Reports

Time Latitude Longitude Heading Altitude Ground
Speed
18-Mar-20 13:34 37.614289 -122.382773 27 35ft 0kts
18-Mar-20 13:35 37.614289 -122.382773 27 35ft 0kts
18-Mar-20 13:36 37.614289 -122.382773 27 34ft 0kts
18-Mar-20 13:37 37.614289 -122.382773 27 34ft 0kts
18-Mar-20 13:38 37.614289 -122.382773 27 34ft 0kts
18-Mar-20 13:39 37.614289 -122.382773 27 34ft 0kts
18-Mar-20 13:40 37.614289 -122.382773 27 34ft 0kts
18-Mar-20 13:41 37.614289 -122.382773 27 34ft 0kts
18-Mar-20 13:42 37.614289 -122.382773 27 34ft 0kts
18-Mar-20 13:43 37.614289 -122.382773 27 34ft 0kts
18-Mar-20 13:44 37.614289 -122.382773 27 34ft 0kts
18-Mar-20 13:45 37.614289 -122.382773 27 34ft 0kts
18-Mar-20 13:46 37.614289 -122.382773 27 34ft 0kts
18-Mar-20 13:47 37.614289 -122.382773 27 34ft 0kts
18-Mar-20 13:48 37.614289 -122.382773 27 34ft 0kts
18-Mar-20 13:49 37.614289 -122.382773 27 34ft 0kts
18-Mar-20 13:50 37.614289 -122.382773 27 34ft 0kts
18-Mar-20 13:51 37.614289 -122.382773 27 34ft 0kts
18-Mar-20 13:52 37.613955 -122.382992 43 34ft 2kts
18-Mar-20 13:53 37.613696 -122.382821 118 34ft 3kts
18-Mar-20 13:54 37.613647 -122.382703 117 34ft 0kts
18-Mar-20 13:55 37.613647 -122.382703 117 34ft 0kts
18-Mar-20 13:56 37.613304 -122.382097 158 34ft 4kts
18-Mar-20 13:57 37.611089 -122.383303 207 34ft 12kts
18-Mar-20 13:58 37.608856 -122.384660 143 34ft 6kts
18-Mar-20 13:59 37.608540 -122.384028 118 34ft 0kts
18-Mar-20 14:00 37.608540 -122.384028 118 34ft 0kts
18-Mar-20 14:01 37.608381 -122.382601 29 33ft 13kts
18-Mar-20 14:02 37.639730 -122.358753 51 1202ft 185kts
18-Mar-20 14:03 37.673541 -122.296974 56 2708ft 253kts
18-Mar-20 14:04 37.713829 -122.222144 52 6081ft 270kts
18-Mar-20 14:05 37.773405 -122.164268 33 9421ft 280kts
18-Mar-20 14:06 37.840882 -122.103190 33 11355ft 343kts
18-Mar-20 14:07 37.918463 -122.032811 33 14621ft 361kts
18-Mar-20 14:08 38.001222 -121.957565 33 17714ft 377kts
18-Mar-20 14:09 38.087805 -121.878615 32 20589ft 392kts
18-Mar-20 14:10 38.177624 -121.796465 32 23264ft 407kts
18-Mar-20 14:11 38.269516 -121.712141 32 24994ft 407kts
18-Mar-20 14:12 38.358318 -121.630452 32 25015ft 432kts
18-Mar-20 14:13 38.452268 -121.539938 40 25012ft 434kts
18-Mar-20 14:14 38.535851 -121.434123 41 25008ft 434kts
18-Mar-20 14:15 38.605502 -121.345125 42 25006ft 434kts
18-Mar-20 14:16 38.685235 -121.242887 42 25004ft 434kts
18-Mar-20 14:17 38.771788 -121.131526 42 24997ft 440kts
18-Mar-20 14:18 38.856409 -121.022248 42 24988ft 447kts
18-Mar-20 14:19 38.940590 -120.913089 43 24257ft 413kts
18-Mar-20 14:20 39.017887 -120.812566 42 22864ft 402kts
18-Mar-20 14:21 39.094897 -120.712091 42 21474ft 395kts
18-Mar-20 14:22 39.169988 -120.613793 42 20195ft 389kts
18-Mar-20 14:23 39.242787 -120.518186 42 18905ft 384kts
18-Mar-20 14:25 39.328149 -120.405694 42 17354ft 378kts
18-Mar-20 14:25 39.385479 -120.329912 43 16315ft 373kts
18-Mar-20 14:26 39.448415 -120.239265 47 15999ft 373kts
18-Mar-20 14:27 39.511764 -120.141797 57 15999ft 374kts
18-Mar-20 14:28 39.517934 -120.016832 103 15995ft 374kts
18-Mar-20 14:29 39.499355 -119.901096 103 14619ft 341kts
18-Mar-20 14:30 39.461743 -119.811438 133 13280ft 309kts
18-Mar-20 14:31 39.403508 -119.719823 132 11707ft 307kts
18-Mar-20 14:32 39.346670 -119.632266 132 10385ft 299kts
18-Mar-20 14:33 39.287334 -119.564381 175 10021ft 280kts
18-Mar-20 14:34 39.209942 -119.563088 182 10002ft 278kts
18-Mar-20 14:35 39.148526 -119.599068 259 10007ft 243kts
18-Mar-20 14:36 39.150405 -119.684650 272 9851ft 240kts
18-Mar-20 14:37 39.172661 -119.756039 332 9522ft 231kts
18-Mar-20 14:38 39.234500 -119.769879 355 9504ft 225kts
18-Mar-20 14:39 39.296692 -119.769966 356 8813ft 221kts
18-Mar-20 14:40 39.355705 -119.769773 357 7447ft 199kts
18-Mar-20 14:41 39.406285 -119.769699 358 6212ft 166kts
18-Mar-20 14:42 39.448923 -119.769369 359 5262ft 145kts
18-Mar-20 14:43 39.488286 -119.769287 0 4425ft 140kts
18-Mar-20 14:44 39.509878 -119.769258 359 4417ft 22kts
18-Mar-20 14:45 39.510865 -119.771338 225 4419ft 6kts
18-Mar-20 14:46 39.508572 -119.771496 180 4418ft 7kts
18-Mar-20 14:47 39.506279 -119.771497 180 4417ft 10kts
18-Mar-20 14:48 39.503741 -119.772265 268 4415ft 5kts
18-Mar-20 14:49 39.503673 -119.773624 209 4418ft 0kts
18-Mar-20 14:50 39.503163 -119.773636 180 4417ft 0kts
18-Mar-20 14:51 39.503151 -119.773636 180 4417ft 0kts

Navigation Log

Ident Type
Flight plan parsing failed, navigation log unavailable